createdAt,value
2022-11-29T00:01:38.819Z,9.88
2022-11-29T00:04:07.555Z,9.86
2022-11-29T00:06:36.930Z,9.87
2022-11-29T00:09:11.720Z,9.97
2022-11-29T00:12:00.264Z,9.97
2022-11-29T00:14:29.689Z,9.99
2022-11-29T00:17:02.830Z,9.99
2022-11-29T00:19:31.936Z,10.08
2022-11-29T00:22:00.433Z,10.06
2022-11-29T00:24:31.646Z,9.98
2022-11-29T00:27:00.399Z,9.99
2022-11-29T00:29:29.765Z,9.91
2022-11-29T00:31:59.560Z,9.74
2022-11-29T00:34:28.148Z,9.53
2022-11-29T00:36:56.193Z,9.61
2022-11-29T00:39:24.555Z,9.55
2022-11-29T00:41:52.925Z,9.57
2022-11-29T00:44:21.404Z,9.47
2022-11-29T00:46:49.769Z,9.45
2022-11-29T00:49:19.520Z,9.54
2022-11-29T00:51:48.122Z,9.50
2022-11-29T00:54:16.730Z,9.36
2022-11-29T00:56:45.175Z,9.49
2022-11-29T00:59:13.243Z,9.29
2022-11-29T01:01:41.525Z,9.38
2022-11-29T01:04:09.754Z,9.35
2022-11-29T01:06:39.674Z,9.37
2022-11-29T01:09:08.299Z,9.53
2022-11-29T01:11:36.671Z,9.55
2022-11-29T01:14:05.187Z,9.66
2022-11-29T01:16:33.938Z,9.34
2022-11-29T01:19:02.686Z,9.29
2022-11-29T01:21:31.653Z,9.54
2022-11-29T01:24:01.830Z,9.77
2022-11-29T01:26:31.952Z,9.57
2022-11-29T01:29:00.620Z,9.62
2022-11-29T01:31:30.674Z,9.63
2022-11-29T01:34:01.326Z,9.60
2022-11-29T01:36:29.816Z,9.60
2022-11-29T01:39:02.270Z,9.56
2022-11-29T01:41:32.689Z,9.61
2022-11-29T01:44:03.991Z,9.44
2022-11-29T01:46:34.762Z,9.46
2022-11-29T01:49:06.731Z,9.52
2022-11-29T01:51:37.269Z,9.59
2022-11-29T01:54:08.753Z,9.72
2022-11-29T01:56:37.325Z,9.77
2022-11-29T01:59:09.490Z,9.77
2022-11-29T02:01:38.593Z,9.83
2022-11-29T02:04:07.764Z,9.57
2022-11-29T02:06:37.103Z,9.70
2022-11-29T02:09:06.907Z,9.72
2022-11-29T02:12:04.191Z,9.77
2022-11-29T02:14:45.537Z,9.81
2022-11-29T02:17:23.040Z,9.89
2022-11-29T02:20:28.300Z,9.91
2022-11-29T02:23:00.598Z,9.94
2022-11-29T02:25:53.095Z,10.03
2022-11-29T02:29:06.586Z,10.04
2022-11-29T02:32:05.921Z,10.14
2022-11-29T02:34:55.507Z,10.10
2022-11-29T02:37:41.783Z,10.23
2022-11-29T02:40:25.309Z,10.37
2022-11-29T02:43:11.554Z,9.89
2022-11-29T02:45:50.177Z,10.10
2022-11-29T02:48:34.298Z,10.23
2022-11-29T02:51:22.079Z,10.34
2022-11-29T02:53:59.488Z,10.23
2022-11-29T02:56:35.528Z,10.35
2022-11-29T02:59:13.646Z,10.38
2022-11-29T03:01:51.121Z,10.44
2022-11-29T03:04:26.835Z,10.38
2022-11-29T03:07:04.193Z,10.26
2022-11-29T03:09:40.081Z,10.30
2022-11-29T03:12:20.152Z,10.29
2022-11-29T03:14:58.462Z,10.20
2022-11-29T03:17:37.753Z,9.89
2022-11-29T03:20:24.080Z,9.97
2022-11-29T03:23:11.004Z,10.10
2022-11-29T03:25:43.601Z,9.99
2022-11-29T03:28:18.758Z,10.07
2022-11-29T03:30:56.208Z,10.11
2022-11-29T03:33:34.191Z,10.10
2022-11-29T03:36:09.984Z,10.13
2022-11-29T03:38:44.155Z,10.15
2022-11-29T03:41:21.243Z,10.22
2022-11-29T03:43:56.142Z,10.00
2022-11-29T03:46:31.709Z,9.87
2022-11-29T03:49:03.967Z,9.68
2022-11-29T03:51:44.180Z,9.71
2022-11-29T03:54:18.998Z,9.59
2022-11-29T03:56:47.755Z,9.52
2022-11-29T03:59:30.868Z,9.60
2022-11-29T04:02:36.256Z,9.57
2022-11-29T04:05:43.363Z,9.45
2022-11-29T04:08:44.068Z,9.39
2022-11-29T04:11:32.226Z,9.48
2022-11-29T04:14:28.915Z,9.62
2022-11-29T04:17:29.076Z,9.64
2022-11-29T04:20:48.177Z,9.64
2022-11-29T04:23:52.530Z,9.57
2022-11-29T04:26:55.734Z,9.65
2022-11-29T04:29:44.970Z,9.62
2022-11-29T04:32:36.906Z,9.60
2022-11-29T04:35:30.051Z,9.38
2022-11-29T04:38:23.258Z,9.40
2022-11-29T04:41:20.986Z,9.63
2022-11-29T04:44:01.231Z,9.73
2022-11-29T04:46:56.654Z,9.73
2022-11-29T04:49:43.126Z,9.81
2022-11-29T04:52:37.858Z,9.82
2022-11-29T04:55:26.403Z,9.92
2022-11-29T04:58:09.971Z,10.00
2022-11-29T05:00:49.159Z,10.02
2022-11-29T05:03:31.346Z,10.14
2022-11-29T05:06:09.160Z,10.26
2022-11-29T05:08:50.012Z,10.21
2022-11-29T05:11:31.081Z,10.28
2022-11-29T05:14:07.073Z,10.28
2022-11-29T05:16:47.548Z,10.22
2022-11-29T05:19:50.991Z,10.08
2022-11-29T05:22:27.424Z,10.18
2022-11-29T05:25:03.582Z,10.16
2022-11-29T05:27:44.515Z,10.15
2022-11-29T05:30:15.623Z,10.17
2022-11-29T05:32:57.457Z,10.07
2022-11-29T05:35:54.316Z,10.08
2022-11-29T05:38:54.121Z,10.06
2022-11-29T05:41:35.764Z,10.05
2022-11-29T05:44:12.188Z,10.01
2022-11-29T05:46:51.928Z,10.03
2022-11-29T05:49:32.260Z,9.98
2022-11-29T05:52:21.852Z,10.04
2022-11-29T05:55:04.655Z,10.13
2022-11-29T05:57:42.529Z,10.13
2022-11-29T06:00:13.106Z,10.28
2022-11-29T06:02:52.692Z,10.22
2022-11-29T06:05:31.549Z,10.27
2022-11-29T06:08:07.032Z,10.28
2022-11-29T06:10:40.057Z,10.21
2022-11-29T06:13:19.853Z,10.17
2022-11-29T06:16:24.786Z,10.24
2022-11-29T06:19:21.666Z,10.32
2022-11-29T06:22:00.130Z,10.44
2022-11-29T06:24:41.682Z,10.39
2022-11-29T06:27:33.326Z,10.35
2022-11-29T06:30:09.241Z,10.20
2022-11-29T06:32:45.421Z,10.20
2022-11-29T06:35:28.487Z,10.26
2022-11-29T06:37:59.546Z,10.02
2022-11-29T06:40:28.205Z,10.06
2022-11-29T06:42:56.165Z,10.03
2022-11-29T06:45:24.622Z,10.24
2022-11-29T06:47:59.736Z,10.35
2022-11-29T06:50:39.419Z,10.39
2022-11-29T06:53:17.832Z,10.33
2022-11-29T06:55:53.676Z,10.23
2022-11-29T06:58:37.002Z,10.28
2022-11-29T07:01:17.754Z,10.38
2022-11-29T07:04:00.094Z,10.38
2022-11-29T07:06:30.089Z,10.44
2022-11-29T07:09:02.391Z,10.46
2022-11-29T07:11:31.064Z,10.47
2022-11-29T07:13:59.428Z,10.42
2022-11-29T07:16:31.756Z,10.44
2022-11-29T07:19:12.587Z,10.45
2022-11-29T07:21:49.371Z,10.49
2022-11-29T07:24:31.475Z,10.48
2022-11-29T07:27:08.698Z,10.38
2022-11-29T07:29:47.379Z,10.34
2022-11-29T07:32:25.021Z,10.38
2022-11-29T07:35:03.085Z,10.48
2022-11-29T07:37:38.677Z,10.57
2022-11-29T07:40:15.560Z,10.57
2022-11-29T07:42:55.211Z,10.52
2022-11-29T07:45:28.887Z,10.59
2022-11-29T07:47:57.153Z,10.60
2022-11-29T07:50:26.603Z,10.72
2022-11-29T07:52:56.299Z,10.74
2022-11-29T07:55:27.770Z,10.85
2022-11-29T07:57:55.761Z,10.69
2022-11-29T08:00:24.797Z,10.85
2022-11-29T08:02:53.059Z,10.94
2022-11-29T08:05:21.196Z,11.01
2022-11-29T08:07:49.471Z,11.15
2022-11-29T08:10:18.881Z,11.14
2022-11-29T08:12:50.116Z,11.09
2022-11-29T08:15:19.599Z,11.29
2022-11-29T08:17:48.115Z,11.37
2022-11-29T08:20:17.534Z,11.47
2022-11-29T08:22:45.449Z,11.55
2022-11-29T08:25:13.699Z,11.31
2022-11-29T08:27:41.734Z,11.48
2022-11-29T08:30:11.820Z,11.54
2022-11-29T08:32:40.025Z,11.69
2022-11-29T08:35:08.270Z,11.74
2022-11-29T08:37:37.349Z,11.75
2022-11-29T08:40:05.672Z,11.92
2022-11-29T08:42:33.728Z,11.97
2022-11-29T08:45:01.711Z,11.81
2022-11-29T08:47:37.718Z,11.80
2022-11-29T08:50:08.780Z,11.64
2022-11-29T08:52:56.313Z,11.82
2022-11-29T08:55:26.297Z,11.89
2022-11-29T08:57:56.036Z,11.89
2022-11-29T09:00:24.233Z,11.88
2022-11-29T09:02:53.645Z,11.96
2022-11-29T09:05:21.682Z,11.82
2022-11-29T09:07:49.717Z,11.75
2022-11-29T09:10:17.911Z,11.89
2022-11-29T09:12:46.427Z,12.01
2022-11-29T09:15:14.939Z,11.74
2022-11-29T09:17:43.184Z,11.71
2022-11-29T09:20:13.627Z,11.79
2022-11-29T09:22:41.616Z,11.56
2022-11-29T09:25:10.417Z,11.68
2022-11-29T09:27:38.326Z,11.79
2022-11-29T09:30:08.278Z,11.86
2022-11-29T09:32:36.777Z,11.72
2022-11-29T09:35:05.189Z,11.92
2022-11-29T09:37:36.969Z,11.97
2022-11-29T09:40:05.904Z,11.98
2022-11-29T09:42:45.631Z,12.15
2022-11-29T09:45:19.728Z,12.26
2022-11-29T09:48:23.018Z,12.55
2022-11-29T09:50:56.280Z,12.90
2022-11-29T09:53:40.560Z,13.00
2022-11-29T09:56:19.670Z,13.03
2022-11-29T09:58:52.624Z,12.99
2022-11-29T10:01:26.187Z,12.64
2022-11-29T10:03:56.316Z,12.93
2022-11-29T10:06:27.462Z,13.14
2022-11-29T10:09:01.706Z,13.34
2022-11-29T10:11:34.486Z,13.38
2022-11-29T10:14:09.535Z,13.14
2022-11-29T10:16:44.561Z,13.11
2022-11-29T10:19:20.910Z,13.15
2022-11-29T10:21:57.379Z,13.08
2022-11-29T10:24:29.826Z,13.26
2022-11-29T10:26:57.890Z,13.45
2022-11-29T10:29:26.337Z,13.56
2022-11-29T10:31:56.899Z,13.88
2022-11-29T10:34:29.874Z,14.04
2022-11-29T10:37:00.075Z,13.93
2022-11-29T10:39:35.825Z,13.85
2022-11-29T10:42:06.600Z,14.10
2022-11-29T10:44:35.335Z,14.42
2022-11-29T10:47:10.643Z,14.42
2022-11-29T10:49:40.349Z,14.26
2022-11-29T10:52:19.415Z,14.34
2022-11-29T10:54:51.008Z,14.41
2022-11-29T10:57:23.887Z,14.47
2022-11-29T11:00:01.731Z,14.41
2022-11-29T11:02:30.009Z,14.34
2022-11-29T11:04:59.812Z,14.34
2022-11-29T11:07:33.273Z,14.48
2022-11-29T11:10:04.680Z,14.55
2022-11-29T11:12:35.185Z,14.84
2022-11-29T11:15:27.594Z,15.12
2022-11-29T11:18:00.230Z,15.06
2022-11-29T11:20:33.243Z,14.95
2022-11-29T11:23:04.439Z,14.71
2022-11-29T11:25:36.264Z,14.65
2022-11-29T11:28:18.130Z,14.53
2022-11-29T11:30:52.108Z,14.60
2022-11-29T11:33:23.846Z,14.44
2022-11-29T11:36:04.294Z,14.31
2022-11-29T11:38:33.487Z,13.97
2022-11-29T11:41:20.844Z,13.75
2022-11-29T11:43:58.151Z,13.71
2022-11-29T11:46:47.672Z,13.99
2022-11-29T11:49:27.038Z,13.68
2022-11-29T11:51:55.156Z,13.44
2022-11-29T11:54:23.677Z,13.70
2022-11-29T11:56:53.938Z,13.93
2022-11-29T11:59:27.796Z,14.02
2022-11-29T12:01:55.741Z,14.17
2022-11-29T12:04:28.562Z,14.13
2022-11-29T12:06:59.720Z,13.91
2022-11-29T12:09:38.329Z,14.05
2022-11-29T12:12:16.079Z,14.09
2022-11-29T12:14:52.556Z,14.24
2022-11-29T12:17:29.216Z,14.34
2022-11-29T12:20:11.083Z,14.19
2022-11-29T12:22:48.288Z,14.29
2022-11-29T12:25:21.968Z,14.44
2022-11-29T12:27:51.838Z,14.53
2022-11-29T12:30:20.497Z,14.52
2022-11-29T12:33:17.092Z,14.59
2022-11-29T12:36:10.008Z,14.54
2022-11-29T12:39:14.412Z,14.34
2022-11-29T12:41:53.910Z,14.59
2022-11-29T12:44:39.868Z,14.74
2022-11-29T12:47:35.354Z,14.43
2022-11-29T12:50:13.616Z,14.32
2022-11-29T12:52:49.831Z,14.16
2022-11-29T12:55:23.767Z,13.88
2022-11-29T12:58:00.380Z,13.81
2022-11-29T13:00:37.247Z,13.84
2022-11-29T13:03:17.166Z,13.88
2022-11-29T13:05:54.906Z,14.03
2022-11-29T13:08:52.143Z,13.96
2022-11-29T13:11:26.483Z,14.08
2022-11-29T13:14:27.051Z,13.84
2022-11-29T13:16:58.958Z,13.63
2022-11-29T13:19:34.657Z,13.75
2022-11-29T13:22:11.708Z,13.81
2022-11-29T13:24:45.147Z,13.94
2022-11-29T13:27:19.381Z,13.81
2022-11-29T13:29:48.194Z,14.10
2022-11-29T13:32:32.504Z,14.05
2022-11-29T13:35:07.309Z,14.21
2022-11-29T13:37:40.134Z,14.31
2022-11-29T13:40:26.520Z,14.42
2022-11-29T13:43:05.266Z,14.43
2022-11-29T13:45:41.850Z,14.57
2022-11-29T13:48:36.359Z,14.61
2022-11-29T13:51:28.181Z,14.57
2022-11-29T13:53:57.791Z,14.39
2022-11-29T13:56:29.853Z,14.39
2022-11-29T13:58:59.131Z,14.49
2022-11-29T14:01:27.695Z,14.52
2022-11-29T14:04:07.290Z,14.39
2022-11-29T14:06:37.399Z,14.51
2022-11-29T14:09:28.065Z,14.63
2022-11-29T14:12:03.131Z,14.56
2022-11-29T14:14:37.292Z,14.56
2022-11-29T14:17:06.595Z,14.52
2022-11-29T14:19:37.815Z,14.52
2022-11-29T14:22:31.177Z,14.56
2022-11-29T14:28:31.887Z,14.01
2022-11-29T14:31:01.997Z,14.16
2022-11-29T14:33:39.915Z,14.08
2022-11-29T14:36:46.608Z,14.04
2022-11-29T14:39:31.366Z,14.00
2022-11-29T14:42:17.009Z,13.88
2022-11-29T14:44:47.614Z,13.59
2022-11-29T14:47:24.769Z,13.62
2022-11-29T14:49:55.302Z,13.51
2022-11-29T14:52:31.753Z,13.12
2022-11-29T14:55:04.528Z,13.09
2022-11-29T14:58:14.806Z,13.06
2022-11-29T15:01:10.864Z,12.97
2022-11-29T15:03:49.663Z,12.89
2022-11-29T15:06:27.133Z,12.80
2022-11-29T15:09:07.325Z,12.72
2022-11-29T15:11:49.760Z,12.71
2022-11-29T15:14:24.579Z,12.78
2022-11-29T15:17:24.585Z,12.78
2022-11-29T15:20:10.058Z,12.97
2022-11-29T15:22:48.041Z,13.03
2022-11-29T15:25:20.241Z,13.01
2022-11-29T15:27:55.963Z,13.02
2022-11-29T15:30:33.100Z,12.98
2022-11-29T15:33:03.448Z,12.90
2022-11-29T15:35:32.385Z,12.92
2022-11-29T15:38:00.449Z,12.97
2022-11-29T15:40:35.576Z,12.77
2022-11-29T15:43:15.000Z,12.80
2022-11-29T15:45:48.843Z,12.81
2022-11-29T15:48:22.491Z,12.75
2022-11-29T15:51:06.124Z,12.71
2022-11-29T15:53:40.675Z,12.56
2022-11-29T15:56:16.545Z,12.54
2022-11-29T15:58:47.116Z,12.53
2022-11-29T16:01:20.933Z,12.50
2022-11-29T16:03:52.216Z,12.19
2022-11-29T16:06:25.453Z,12.26
2022-11-29T16:08:54.651Z,12.12
2022-11-29T16:11:28.519Z,11.81
2022-11-29T16:14:05.379Z,11.82
2022-11-29T16:16:35.607Z,11.78
2022-11-29T16:19:17.468Z,11.85
2022-11-29T16:21:48.559Z,11.78
2022-11-29T16:24:22.024Z,11.79
2022-11-29T16:26:52.361Z,11.42
2022-11-29T16:29:24.659Z,11.27
2022-11-29T16:31:53.475Z,11.20
2022-11-29T16:34:27.623Z,11.11
2022-11-29T16:37:04.150Z,11.24
2022-11-29T16:39:32.696Z,11.31
2022-11-29T16:42:09.156Z,11.32
2022-11-29T16:45:22.827Z,11.30
2022-11-29T16:47:58.207Z,11.37
2022-11-29T16:50:28.266Z,11.42
2022-11-29T16:52:57.125Z,11.48
2022-11-29T16:55:25.640Z,11.66
2022-11-29T16:57:55.167Z,11.67
2022-11-29T17:00:29.833Z,11.77
2022-11-29T17:02:57.879Z,11.74
2022-11-29T17:05:26.099Z,11.80
2022-11-29T17:07:54.751Z,11.89
2022-11-29T17:10:25.612Z,11.91
2022-11-29T17:12:56.316Z,11.90
2022-11-29T17:15:24.428Z,11.80
2022-11-29T17:17:52.492Z,11.76
2022-11-29T17:20:20.426Z,11.70
2022-11-29T17:22:48.616Z,11.63
2022-11-29T17:25:17.033Z,11.62
2022-11-29T17:27:45.051Z,11.55
2022-11-29T17:30:15.803Z,11.58
2022-11-29T17:32:43.840Z,11.46
2022-11-29T17:35:12.263Z,11.23
2022-11-29T17:37:40.209Z,11.22
2022-11-29T17:40:09.796Z,11.27
2022-11-29T17:42:37.769Z,11.18
2022-11-29T17:45:06.139Z,11.13
2022-11-29T17:47:35.847Z,11.12
2022-11-29T17:50:03.918Z,11.04
2022-11-29T17:52:31.796Z,10.95
2022-11-29T17:54:59.836Z,10.75
2022-11-29T17:57:27.918Z,10.74
2022-11-29T17:59:56.064Z,10.60
2022-11-29T18:02:24.634Z,10.61
2022-11-29T18:04:54.144Z,10.64
2022-11-29T18:07:22.538Z,10.66
2022-11-29T18:09:50.905Z,10.61
2022-11-29T18:12:20.273Z,10.50
2022-11-29T18:14:50.188Z,10.49
2022-11-29T18:17:18.385Z,10.44
2022-11-29T18:19:46.777Z,10.32
2022-11-29T18:22:16.497Z,10.26
2022-11-29T18:24:44.632Z,10.26
2022-11-29T18:27:12.636Z,10.33
2022-11-29T18:29:40.564Z,10.41
2022-11-29T18:32:08.643Z,10.52
2022-11-29T18:34:36.584Z,10.53
2022-11-29T18:37:04.578Z,10.66
2022-11-29T18:39:34.245Z,10.60
2022-11-29T18:42:02.241Z,10.62
2022-11-29T18:44:32.584Z,10.65
2022-11-29T18:47:00.544Z,10.61
2022-11-29T18:49:28.526Z,10.72
2022-11-29T18:51:56.627Z,10.77
2022-11-29T18:54:24.660Z,10.89
2022-11-29T18:56:54.194Z,11.03
2022-11-29T18:59:23.227Z,11.04
2022-11-29T19:01:51.251Z,11.03
2022-11-29T19:04:21.392Z,11.09
2022-11-29T19:06:50.445Z,11.08
2022-11-29T19:09:21.298Z,10.95
2022-11-29T19:11:50.025Z,10.83
2022-11-29T19:14:20.094Z,10.80
2022-11-29T19:16:52.554Z,10.50
2022-11-29T19:19:20.746Z,10.09
2022-11-29T19:21:49.278Z,10.17
2022-11-29T19:24:19.006Z,10.20
2022-11-29T19:26:49.249Z,10.18
2022-11-29T19:29:20.815Z,10.22
2022-11-29T19:31:50.355Z,10.31
2022-11-29T19:34:19.382Z,10.38
2022-11-29T19:36:48.755Z,10.51
2022-11-29T19:39:18.215Z,10.64
2022-11-29T19:41:49.309Z,10.73
2022-11-29T19:44:17.275Z,10.81
2022-11-29T19:46:48.744Z,10.81
2022-11-29T19:49:17.701Z,10.62
2022-11-29T19:51:45.774Z,10.23
2022-11-29T19:54:13.858Z,10.13
2022-11-29T19:56:42.142Z,10.15
2022-11-29T19:59:10.568Z,10.04
2022-11-29T20:01:41.787Z,9.91
2022-11-29T20:04:13.243Z,10.00
2022-11-29T20:06:42.118Z,9.84
2022-11-29T20:09:10.865Z,9.85
2022-11-29T20:11:39.298Z,9.85
2022-11-29T20:14:09.256Z,9.87
2022-11-29T20:16:39.178Z,9.94
2022-11-29T20:19:13.038Z,10.05
2022-11-29T20:21:44.088Z,10.08
2022-11-29T20:24:14.535Z,10.09
2022-11-29T20:26:44.987Z,10.12
2022-11-29T20:29:14.272Z,10.09
2022-11-29T20:31:49.601Z,10.05
2022-11-29T20:34:21.593Z,9.99
2022-11-29T20:37:12.076Z,10.08
2022-11-29T20:39:47.242Z,10.14
2022-11-29T20:42:48.255Z,10.10
2022-11-29T20:45:17.809Z,10.15
2022-11-29T20:47:54.680Z,10.25
2022-11-29T20:50:26.462Z,10.34
2022-11-29T20:53:08.662Z,10.32
2022-11-29T20:55:42.438Z,10.22
2022-11-29T20:58:14.737Z,10.10
2022-11-29T21:00:42.913Z,10.08
2022-11-29T21:03:14.124Z,10.09
2022-11-29T21:05:44.500Z,9.97
2022-11-29T21:08:13.401Z,9.91
2022-11-29T21:10:41.544Z,9.73
2022-11-29T21:13:14.844Z,9.80
2022-11-29T21:15:43.935Z,9.88
2022-11-29T21:18:22.201Z,9.87
2022-11-29T21:21:03.250Z,9.89
2022-11-29T21:23:44.672Z,9.98
2022-11-29T21:26:17.700Z,10.07
2022-11-29T21:28:56.406Z,10.10
2022-11-29T21:31:26.509Z,10.16
2022-11-29T21:33:55.288Z,10.01
2022-11-29T21:36:26.386Z,10.01
2022-11-29T21:38:55.359Z,9.92
2022-11-29T21:41:24.034Z,9.91
2022-11-29T21:44:06.380Z,9.88
2022-11-29T21:46:36.137Z,9.86
2022-11-29T21:49:04.926Z,9.75
2022-11-29T21:51:34.880Z,9.58
2022-11-29T21:54:03.153Z,9.41
2022-11-29T21:56:31.224Z,9.48
2022-11-29T21:58:59.130Z,9.50
2022-11-29T22:01:28.263Z,9.52
2022-11-29T22:03:56.472Z,9.54
2022-11-29T22:06:29.378Z,9.21
2022-11-29T22:09:00.098Z,8.99
2022-11-29T22:11:34.685Z,9.09
2022-11-29T22:14:15.259Z,9.18
2022-11-29T22:16:44.821Z,9.59
2022-11-29T22:19:14.360Z,9.54
2022-11-29T22:21:43.254Z,9.49
2022-11-29T22:24:13.919Z,9.45
2022-11-29T22:26:43.668Z,9.45
2022-11-29T22:29:14.168Z,9.34
2022-11-29T22:31:42.637Z,9.29
2022-11-29T22:34:13.914Z,9.24
2022-11-29T22:36:42.575Z,9.34
2022-11-29T22:39:12.120Z,9.45
2022-11-29T22:41:41.445Z,9.56
2022-11-29T22:44:09.900Z,9.50
2022-11-29T22:46:40.353Z,9.28
2022-11-29T22:49:08.353Z,9.29
2022-11-29T22:51:38.706Z,9.41
2022-11-29T22:54:08.964Z,9.46
2022-11-29T22:56:40.496Z,9.49
2022-11-29T22:59:09.148Z,9.56
2022-11-29T23:01:38.775Z,9.54
2022-11-29T23:04:08.867Z,9.64
2022-11-29T23:06:39.367Z,9.58
2022-11-29T23:09:10.721Z,9.23
2022-11-29T23:11:40.431Z,9.29
2022-11-29T23:14:08.315Z,9.19
2022-11-29T23:16:36.276Z,8.94
2022-11-29T23:19:04.488Z,8.97
2022-11-29T23:21:34.027Z,8.94
2022-11-29T23:24:02.423Z,9.05
2022-11-29T23:26:34.008Z,9.13
2022-11-29T23:29:03.511Z,9.24
2022-11-29T23:31:31.667Z,9.10
2022-11-29T23:33:59.729Z,9.11
2022-11-29T23:36:27.903Z,9.18
2022-11-29T23:38:56.051Z,9.12
2022-11-29T23:41:24.033Z,9.18
2022-11-29T23:43:51.990Z,8.94
2022-11-29T23:46:23.340Z,8.97
2022-11-29T23:48:53.603Z,9.08
2022-11-29T23:51:22.592Z,9.09
2022-11-29T23:53:52.543Z,9.11
2022-11-29T23:56:21.342Z,9.21
2022-11-29T23:58:49.934Z,9.35
